首页
METAR-TAF:

METAR-TAF

机场 :

科威特國際機場

科威特, 科威特

纬度: 29-13N, 经度: 047-59E, 海拔: 55米

当前天气观测

该预报发布于29分钟前的07:00 UTC
风速6节,风向
温度 28°C
湿度 22%
气压 1018 hPa
能见度10公里或以上
1500米以下无云,无积雨云

METAR: OKBK 310700Z 19006KT CAVOK 28/04 Q1018 NOSIG

时间: 10:29 (07:29 UTC)

预报

该预报发布于2小时和44分钟前的04:45 UTC
预报有效从31日的 06点(UTC)到 01日的 12点(UTC)
风速3节,风向多变
能見度: 7000
成为
从 31日的 10点(UTC)到 31日的 12点(UTC)
风速10节,风向东转东南

TAF: OKBK 310445Z 3106/0112 VRB03KT 7000 NSC BECMG 3110/3112 12010KT

超过4000个机场的气象观测和天气预报(METAR&TAF报告)。

可查询的气象台以黄色和红色小点在地图上表示。

将鼠标移到小点上方,可查看气象台名称。

然后点击查看天气观测和预报。

如需切换地图:点击带黑十字的绿色按钮放大地图;点击带横线的绿色按钮缩小地图;或者点击绿色箭头查看邻近地区的地图。


METAR-TAF: